Time;durP1;ratioP1;P1;durP2;ratioP2;P2;SDS_P1;SDS_P2;PMS_P1;PMS_P2;Temp;Humidity;BMP_temperature;BMP_pressure;BME280_temperature;BME280_humidity;BME280_pressure;Samples;Min_cycle;Max_cycle;Signal;HPM_P1;HPM_P2
2022/01/28 00:02:26;;;;;;;3.20;1.63;;;5.90;99.90;;;;;;5059266;28;20178;-68
2022/01/28 00:04:53;;;;;;;5.63;2.00;;;5.80;99.90;;;;;;5039594;28;20188;-68
2022/01/28 00:07:19;;;;;;;2.33;1.70;;;5.70;99.90;;;;;;5045895;28;20178;-66
2022/01/28 00:09:44;;;;;;;3.40;2.07;;;5.70;99.90;;;;;;5051220;28;20695;-66
2022/01/28 00:12:11;;;;;;;4.00;2.00;;;5.70;99.90;;;;;;5048798;28;20228;-64
2022/01/28 00:39:09;;;;;;;3.38;1.27;;;5.60;99.90;;;;;;5049059;28;20208;-67
2022/01/28 00:41:35;;;;;;;2.17;1.50;;;5.60;99.90;;;;;;5050487;28;20767;-67
2022/01/28 00:44:00;;;;;;;3.70;1.60;;;5.60;99.90;;;;;;5050017;28;20216;-69
2022/01/28 00:46:26;;;;;;;1.50;1.20;;;5.70;99.90;;;;;;5050496;28;20189;-69
2022/01/28 00:48:51;;;;;;;4.13;1.60;;;5.60;99.90;;;;;;5052271;28;20203;-67
2022/01/28 00:51:17;;;;;;;5.03;1.37;;;5.60;99.90;;;;;;5056783;28;20243;-65
2022/01/28 00:53:43;;;;;;;2.25;1.40;;;5.60;99.90;;;;;;5055870;28;20263;-68
2022/01/28 00:56:08;;;;;;;4.83;1.90;;;5.60;99.90;;;;;;5068330;28;20238;-68
2022/01/28 00:58:34;;;;;;;1.97;1.23;;;5.60;99.90;;;;;;5063665;28;20203;-68
2022/01/28 01:00:59;;;;;;;2.00;1.37;;;5.60;99.90;;;;;;5050134;28;20182;-69
2022/01/28 01:03:25;;;;;;;1.93;1.50;;;5.60;99.90;;;;;;5049527;28;20221;-68
2022/01/28 01:05:50;;;;;;;4.77;1.40;;;5.60;99.90;;;;;;5058285;28;20190;-68
2022/01/28 01:08:16;;;;;;;2.87;1.73;;;5.70;99.90;;;;;;5048356;28;20613;-66
2022/01/28 01:10:42;;;;;;;3.23;1.73;;;5.60;99.90;;;;;;5069556;28;20181;-69
2022/01/28 01:13:08;;;;;;;4.50;1.30;;;5.50;99.90;;;;;;5055481;28;20190;-69
2022/01/28 01:15:38;;;;;;;2.78;1.77;;;5.60;99.90;;;;;;5049494;28;20328;-69
2022/01/28 01:18:19;;;;;;;1.60;1.40;;;5.60;99.90;;;;;;5050208;28;20170;-69
2022/01/28 01:23:14;;;;;;;3.33;1.40;;;5.60;99.90;;;;;;5058376;28;20635;-69
2022/01/28 01:26:00;;;;;;;1.85;1.70;;;5.60;99.90;;;;;;5049626;28;20174;-69
2022/01/28 01:28:31;;;;;;;3.92;1.65;;;5.50;99.90;;;;;;5050150;28;20281;-69
2022/01/28 01:30:58;;;;;;;3.97;1.75;;;5.50;99.90;;;;;;5049612;28;20200;-69
2022/01/28 01:33:24;;;;;;;3.53;1.58;;;5.50;99.90;;;;;;5052917;28;20221;-68
2022/01/28 01:35:50;;;;;;;4.47;1.88;;;5.50;99.90;;;;;;5057152;28;20194;-69
2022/01/28 01:38:15;;;;;;;2.10;1.60;;;5.50;99.90;;;;;;5052391;28;20718;-69
2022/01/28 01:40:54;;;;;;;2.60;1.60;;;5.50;99.90;;;;;;5070061;28;20185;-69
2022/01/28 01:43:37;;;;;;;2.75;1.40;;;5.50;99.90;;;;;;5064767;28;20201;-70
2022/01/28 01:46:19;;;;;;;4.28;1.60;;;5.50;99.90;;;;;;5055751;28;20297;-68
2022/01/28 01:54:13;;;;;;;4.72;1.40;;;5.50;99.90;;;;;;5044066;28;20890;-67
2022/01/28 01:56:39;;;;;;;3.30;1.47;;;5.50;99.90;;;;;;5062812;28;20193;-65
2022/01/28 01:59:08;;;;;;;3.58;1.60;;;5.50;99.90;;;;;;5067537;28;20663;-66
2022/01/28 02:01:33;;;;;;;3.67;1.40;;;5.50;99.90;;;;;;5069114;28;20181;-65
2022/01/28 02:03:59;;;;;;;8.47;2.00;;;5.50;99.90;;;;;;5043222;28;20217;-67
2022/01/28 02:06:24;;;;;;;6.43;1.80;;;5.50;99.90;;;;;;5042536;28;20275;-65
2022/01/28 02:08:50;;;;;;;4.33;2.30;;;5.40;99.90;;;;;;5048225;28;20190;-65
2022/01/28 02:11:16;;;;;;;3.83;1.50;;;5.40;99.90;;;;;;5058299;28;20192;-67
2022/01/28 02:13:48;;;;;;;3.53;1.97;;;5.40;99.90;;;;;;5051523;28;20182;-66
2022/01/28 02:16:13;;;;;;;11.30;1.92;;;5.40;99.90;;;;;;5029232;28;20163;-67
2022/01/28 02:18:39;;;;;;;4.90;1.50;;;5.40;99.90;;;;;;5041421;28;20235;-68
2022/01/28 02:21:08;;;;;;;4.50;1.70;;;5.40;99.90;;;;;;5048383;28;20197;-63
2022/01/28 02:23:34;;;;;;;5.50;1.38;;;5.40;99.90;;;;;;5029348;28;20641;-61
2022/01/28 02:26:01;;;;;;;3.00;1.85;;;5.40;99.90;;;;;;5036792;28;20262;-67
2022/01/28 02:28:29;;;;;;;3.58;1.55;;;5.40;99.90;;;;;;5048958;28;20186;-67
2022/01/28 02:30:55;;;;;;;3.10;1.30;;;5.40;99.90;;;;;;5047183;28;20182;-67
2022/01/28 02:33:25;;;;;;;3.20;1.53;;;5.30;99.90;;;;;;5048950;28;20188;-68
2022/01/28 02:35:51;;;;;;;3.42;1.63;;;5.30;99.90;;;;;;5047661;28;20175;-67
2022/01/28 02:38:20;;;;;;;3.80;1.63;;;5.20;99.90;;;;;;5048398;28;20534;-67
2022/01/28 02:40:58;;;;;;;3.08;1.60;;;5.20;99.90;;;;;;5048613;28;20554;-67
2022/01/28 02:43:45;;;;;;;6.72;1.30;;;5.10;99.90;;;;;;5047180;28;20209;-67
2022/01/28 02:46:14;;;;;;;4.00;2.17;;;5.10;99.90;;;;;;5046882;28;20236;-67
2022/01/28 02:48:49;;;;;;;3.78;1.38;;;5.00;99.90;;;;;;5048536;28;20178;-65
2022/01/28 02:51:18;;;;;;;5.15;1.60;;;5.10;99.90;;;;;;5055026;28;20184;-67
2022/01/28 02:56:20;;;;;;;5.30;1.70;;;5.00;99.90;;;;;;5066137;28;20193;-66
2022/01/28 02:58:46;;;;;;;1.98;1.20;;;5.00;99.90;;;;;;5057197;28;20185;-67
2022/01/28 03:01:15;;;;;;;3.35;1.50;;;5.00;99.90;;;;;;5067839;28;20197;-67
2022/01/28 03:03:45;;;;;;;1.58;1.20;;;5.10;99.90;;;;;;5058883;28;20201;-68
2022/01/28 03:06:12;;;;;;;2.05;1.40;;;5.10;99.90;;;;;;5061624;28;20186;-67
2022/01/28 03:08:42;;;;;;;3.17;1.30;;;5.10;99.90;;;;;;5051831;28;20174;-68
2022/01/28 03:11:41;;;;;;;2.35;1.50;;;5.20;99.90;;;;;;5056192;28;20202;-67
2022/01/28 03:14:22;;;;;;;2.35;1.15;;;5.20;99.90;;;;;;5051875;28;20193;-67
2022/01/28 03:19:21;;;;;;;2.70;1.50;;;5.10;99.90;;;;;;5053475;28;20971;-67
2022/01/28 03:21:58;;;;;;;6.18;1.60;;;5.20;99.90;;;;;;5050419;28;20272;-67
2022/01/28 03:24:25;;;;;;;4.80;1.80;;;5.20;99.90;;;;;;5051194;28;21617;-62
2022/01/28 03:26:56;;;;;;;2.90;1.67;;;5.10;99.90;;;;;;5055557;28;20174;-67
2022/01/28 03:29:23;;;;;;;3.97;1.33;;;5.10;99.90;;;;;;5055922;28;20190;-63
2022/01/28 03:31:49;;;;;;;2.65;1.40;;;5.20;99.90;;;;;;5051117;28;20178;-65
2022/01/28 03:34:14;;;;;;;4.63;1.70;;;5.20;99.90;;;;;;5063124;28;20189;-67
2022/01/28 03:36:40;;;;;;;4.07;1.70;;;5.20;99.90;;;;;;5052170;28;20196;-67
2022/01/28 03:39:08;;;;;;;2.40;1.53;;;5.10;99.90;;;;;;5068890;28;20626;-62
2022/01/28 03:41:33;;;;;;;4.30;1.73;;;5.10;99.90;;;;;;5070208;28;20177;-67
2022/01/28 03:44:00;;;;;;;3.17;1.27;;;5.10;99.90;;;;;;5068882;28;20303;-68
2022/01/28 03:46:27;;;;;;;3.20;1.70;;;5.10;99.90;;;;;;5061285;28;20192;-68
2022/01/28 03:48:54;;;;;;;4.07;1.58;;;5.10;99.90;;;;;;5059772;28;20190;-66
2022/01/28 03:51:20;;;;;;;2.55;1.20;;;5.10;99.90;;;;;;5062585;28;20186;-67
2022/01/28 03:53:45;;;;;;;3.08;1.40;;;5.10;99.90;;;;;;5067664;28;20305;-66
2022/01/28 03:56:11;;;;;;;4.13;1.70;;;5.10;99.90;;;;;;5050194;28;20273;-66
2022/01/28 03:58:37;;;;;;;3.43;1.33;;;5.20;99.90;;;;;;5063150;28;20193;-66
2022/01/28 04:01:08;;;;;;;5.50;2.07;;;5.20;99.90;;;;;;5054610;28;20439;-66
2022/01/28 04:11:33;;;;;;;4.47;1.67;;;5.30;99.90;;;;;;5018894;28;20249;-67
2022/01/28 04:14:09;;;;;;;3.67;1.60;;;5.30;99.90;;;;;;5054304;28;20186;-67
2022/01/28 04:19:20;;;;;;;7.15;2.85;;;5.30;99.90;;;;;;5055565;28;20671;-66
2022/01/28 04:21:46;;;;;;;4.90;1.75;;;5.30;99.90;;;;;;5061758;28;20190;-66
2022/01/28 04:24:12;;;;;;;4.55;1.90;;;5.40;99.90;;;;;;5063008;28;20205;-66
2022/01/28 04:26:37;;;;;;;3.93;1.60;;;5.50;99.90;;;;;;5062649;28;20182;-67
2022/01/28 04:29:03;;;;;;;3.33;1.50;;;5.40;99.90;;;;;;5056063;28;20425;-67
2022/01/28 04:31:28;;;;;;;3.00;1.60;;;5.40;99.90;;;;;;5049873;28;20645;-67
2022/01/28 04:33:55;;;;;;;6.03;1.60;;;5.40;99.90;;;;;;5052966;28;20197;-68
2022/01/28 04:36:23;;;;;;;4.70;1.80;;;5.40;99.90;;;;;;5064415;28;20212;-67
2022/01/28 04:38:57;;;;;;;2.67;1.50;;;5.40;99.90;;;;;;5070545;28;20228;-67
2022/01/28 04:44:16;;;;;;;2.63;1.50;;;5.30;99.90;;;;;;5053707;28;20225;-67
2022/01/28 04:46:48;;;;;;;9.95;2.05;;;5.30;99.90;;;;;;5070466;28;20192;-66
2022/01/28 04:49:30;;;;;;;6.22;1.60;;;5.30;99.90;;;;;;5052929;28;20255;-67
2022/01/28 04:57:19;;;;;;;3.10;1.73;;;5.20;99.90;;;;;;5059966;28;20217;-67
2022/01/28 05:00:15;;;;;;;5.82;2.00;;;5.10;99.90;;;;;;5057669;28;20196;-66
2022/01/28 05:03:05;;;;;;;7.30;1.60;;;5.10;99.90;;;;;;5048256;28;20178;-66
2022/01/28 05:16:23;;;;;;;3.45;1.63;;;4.70;99.90;;;;;;5053321;28;20181;-65
2022/01/28 05:26:53;;;;;;;5.85;1.80;;;4.50;99.90;;;;;;5049810;28;20694;-64
2022/01/28 05:29:18;;;;;;;8.60;1.73;;;4.50;99.90;;;;;;5057112;28;20177;-65
2022/01/28 05:31:44;;;;;;;4.17;2.00;;;4.40;99.90;;;;;;5053299;28;20216;-64
2022/01/28 05:34:09;;;;;;;5.57;2.40;;;4.40;99.90;;;;;;5052161;28;20194;-66
2022/01/28 05:36:35;;;;;;;7.27;2.27;;;4.40;99.90;;;;;;5064929;28;20185;-67
2022/01/28 05:39:01;;;;;;;6.27;2.20;;;4.40;99.90;;;;;;5060434;28;20190;-66
2022/01/28 05:41:26;;;;;;;9.93;1.83;;;4.40;99.90;;;;;;5050068;28;20215;-67
2022/01/28 05:43:52;;;;;;;6.83;2.10;;;4.50;99.90;;;;;;5062338;28;20696;-66
2022/01/28 05:46:18;;;;;;;4.40;1.77;;;4.50;99.90;;;;;;5053787;28;20209;-66
2022/01/28 05:48:44;;;;;;;6.20;2.00;;;4.50;99.90;;;;;;5055332;28;20589;-67
2022/01/28 05:51:11;;;;;;;3.33;1.80;;;4.50;99.90;;;;;;5054332;28;20190;-68
2022/01/28 05:53:37;;;;;;;7.60;1.70;;;4.50;99.90;;;;;;5053870;28;20470;-67
2022/01/28 05:56:03;;;;;;;8.13;2.43;;;4.50;99.90;;;;;;5057275;28;20720;-67
2022/01/28 05:58:28;;;;;;;4.90;1.93;;;4.60;99.90;;;;;;5048516;28;20435;-67
2022/01/28 06:00:54;;;;;;;6.30;2.23;;;4.60;99.90;;;;;;5058807;28;20444;-66
2022/01/28 06:03:20;;;;;;;7.03;2.53;;;4.60;99.90;;;;;;5049146;28;20206;-66
2022/01/28 06:05:47;;;;;;;3.10;1.80;;;4.60;99.90;;;;;;5063832;28;20199;-67
2022/01/28 06:08:13;;;;;;;5.82;2.30;;;4.50;99.90;;;;;;5049243;28;20178;-66
2022/01/28 06:10:38;;;;;;;5.57;2.00;;;4.50;99.90;;;;;;5060971;28;20239;-68
2022/01/28 06:13:05;;;;;;;7.97;2.33;;;4.50;99.90;;;;;;5049032;28;20894;-68
2022/01/28 06:15:31;;;;;;;3.38;2.30;;;4.50;99.90;;;;;;5059711;28;20559;-68
2022/01/28 06:17:56;;;;;;;5.53;2.33;;;4.50;99.90;;;;;;5061151;28;20182;-68
2022/01/28 06:20:22;;;;;;;4.40;2.13;;;4.50;99.90;;;;;;5068264;28;20909;-68
2022/01/28 06:22:49;;;;;;;5.87;1.87;;;4.50;99.90;;;;;;5060701;28;20220;-68
2022/01/28 06:25:15;;;;;;;5.40;2.30;;;4.60;99.90;;;;;;5050034;28;20293;-69
2022/01/28 06:27:41;;;;;;;6.78;2.95;;;4.60;99.90;;;;;;5058833;28;20193;-68
2022/01/28 06:30:07;;;;;;;6.53;3.20;;;4.60;99.90;;;;;;5068701;28;20189;-63
2022/01/28 06:32:33;;;;;;;5.82;2.05;;;4.60;99.90;;;;;;5052487;28;20187;-69
2022/01/28 06:35:00;;;;;;;7.40;2.50;;;4.70;99.90;;;;;;5064374;28;20632;-68
2022/01/28 06:37:26;;;;;;;6.43;2.35;;;4.60;99.90;;;;;;5061362;28;20629;-68
2022/01/28 06:39:52;;;;;;;4.15;2.10;;;4.70;99.90;;;;;;5052977;28;20651;-68
2022/01/28 06:42:17;;;;;;;5.03;2.70;;;4.70;99.90;;;;;;5051919;28;20178;-68
2022/01/28 06:44:43;;;;;;;4.83;2.10;;;4.70;99.90;;;;;;5052675;28;20191;-68
2022/01/28 06:47:10;;;;;;;6.80;2.53;;;4.70;99.90;;;;;;5046326;28;20187;-67
2022/01/28 06:49:37;;;;;;;3.97;2.05;;;4.70;99.90;;;;;;5051274;28;20170;-66
2022/01/28 06:52:03;;;;;;;5.53;2.33;;;4.60;99.90;;;;;;5050577;28;20170;-52
2022/01/28 06:54:29;;;;;;;5.53;1.95;;;4.60;99.90;;;;;;5052744;28;20186;-52
2022/01/28 06:56:54;;;;;;;5.67;2.43;;;4.50;99.90;;;;;;5051731;28;20187;-50
2022/01/28 06:59:20;;;;;;;7.57;3.03;;;4.50;99.90;;;;;;5051893;28;20182;-54
2022/01/28 07:01:45;;;;;;;4.43;2.73;;;4.50;99.90;;;;;;5048520;28;20193;-49
2022/01/28 07:04:11;;;;;;;6.17;2.30;;;4.40;99.90;;;;;;5051017;28;20688;-50
2022/01/28 07:06:37;;;;;;;13.27;3.03;;;4.50;99.90;;;;;;5051126;28;20209;-48
2022/01/28 07:09:02;;;;;;;5.03;1.97;;;4.60;99.90;;;;;;5051790;28;20189;-49
2022/01/28 07:11:28;;;;;;;12.37;2.80;;;4.60;99.90;;;;;;5062515;28;20239;-48
2022/01/28 07:13:53;;;;;;;7.20;2.13;;;4.50;99.90;;;;;;5051473;28;20189;-51
2022/01/28 07:16:19;;;;;;;4.93;2.20;;;4.50;99.90;;;;;;5052792;28;20667;-53
2022/01/28 07:18:44;;;;;;;8.67;2.97;;;4.50;99.90;;;;;;5051740;28;20197;-52
2022/01/28 07:21:10;;;;;;;7.43;2.90;;;4.50;99.90;;;;;;5048370;28;20194;-49
2022/01/28 07:23:35;;;;;;;6.60;2.70;;;4.50;99.90;;;;;;5046019;28;20233;-47
2022/01/28 07:26:01;;;;;;;8.80;2.67;;;4.60;99.90;;;;;;5046096;28;20207;-50
2022/01/28 07:28:26;;;;;;;3.53;1.90;;;4.60;99.90;;;;;;5050291;28;20269;-49
2022/01/28 07:30:52;;;;;;;8.27;3.00;;;4.60;99.90;;;;;;5049624;28;20277;-50
2022/01/28 07:33:18;;;;;;;5.27;2.50;;;4.60;99.90;;;;;;5050529;28;20247;-52
2022/01/28 07:35:44;;;;;;;8.98;3.20;;;4.70;99.90;;;;;;5066557;28;20438;-51
2022/01/28 07:38:10;;;;;;;8.60;2.30;;;4.70;99.90;;;;;;5055029;28;20194;-50
2022/01/28 07:40:36;;;;;;;7.33;2.83;;;4.70;99.90;;;;;;5057055;28;20186;-52
2022/01/28 07:43:01;;;;;;;3.80;2.60;;;4.70;99.90;;;;;;5042899;28;20209;-50
2022/01/28 07:45:27;;;;;;;7.10;1.90;;;4.70;99.90;;;;;;5053997;28;20216;-54
2022/01/28 07:47:53;;;;;;;5.23;2.33;;;4.80;99.90;;;;;;5068061;28;20418;-52
2022/01/28 07:50:19;;;;;;;5.67;2.97;;;4.80;99.90;;;;;;5066242;28;20255;-49
2022/01/28 07:52:45;;;;;;;8.10;2.05;;;4.80;99.90;;;;;;5053040;28;21035;-53
2022/01/28 07:55:13;;;;;;;5.75;2.55;;;4.80;99.90;;;;;;5049713;28;20214;-52
2022/01/28 07:57:39;;;;;;;3.35;2.00;;;4.80;99.90;;;;;;5050237;28;20220;-54
2022/01/28 08:00:06;;;;;;;4.00;1.70;;;4.80;99.90;;;;;;5050012;28;20203;-52
2022/01/28 08:02:32;;;;;;;4.28;1.83;;;4.90;99.90;;;;;;5050305;28;20185;-52
2022/01/28 08:04:57;;;;;;;5.53;2.20;;;4.90;99.90;;;;;;5048005;28;20609;-52
2022/01/28 08:07:23;;;;;;;11.03;2.33;;;4.90;99.90;;;;;;5055297;28;20212;-56
2022/01/28 08:09:48;;;;;;;6.70;2.17;;;4.90;99.90;;;;;;5060058;28;20186;-53
2022/01/28 08:12:14;;;;;;;2.13;1.80;;;4.90;99.90;;;;;;5066018;28;20190;-52
2022/01/28 08:14:39;;;;;;;4.23;2.17;;;4.90;99.90;;;;;;5062741;28;20643;-55
2022/01/28 08:17:05;;;;;;;4.33;1.93;;;4.90;99.90;;;;;;5049178;28;20194;-53
2022/01/28 08:19:31;;;;;;;11.03;3.00;;;5.00;99.90;;;;;;5044542;28;20251;-54
2022/01/28 08:21:56;;;;;;;6.80;2.60;;;5.00;99.90;;;;;;5050389;28;20653;-52
2022/01/28 08:24:22;;;;;;;5.67;2.20;;;5.10;99.90;;;;;;5044375;28;20960;-54
2022/01/28 08:26:48;;;;;;;4.87;2.13;;;5.10;99.90;;;;;;5057875;28;20192;-54
2022/01/28 08:29:13;;;;;;;6.97;2.10;;;5.10;99.90;;;;;;5053068;28;20247;-53
2022/01/28 08:31:39;;;;;;;7.20;2.40;;;5.20;99.90;;;;;;5060700;28;20239;-54
2022/01/28 08:34:05;;;;;;;6.07;2.07;;;5.10;99.90;;;;;;5055549;28;20182;-56
2022/01/28 08:36:30;;;;;;;6.60;3.03;;;5.20;99.90;;;;;;5053744;28;20240;-55
2022/01/28 08:38:56;;;;;;;5.00;2.27;;;5.20;99.90;;;;;;5053168;28;20177;-53
2022/01/28 08:41:23;;;;;;;6.88;2.13;;;5.20;99.90;;;;;;5055249;28;20189;-54
2022/01/28 08:43:49;;;;;;;8.63;2.58;;;5.20;99.90;;;;;;5060684;28;20205;-54
2022/01/28 08:46:15;;;;;;;4.78;2.00;;;5.20;99.90;;;;;;5053082;28;20174;-57
2022/01/28 08:48:41;;;;;;;8.60;2.50;;;5.20;99.90;;;;;;5052594;28;20181;-55
2022/01/28 08:51:06;;;;;;;4.57;1.93;;;5.20;99.90;;;;;;5061471;28;20170;-56
2022/01/28 08:53:33;;;;;;;4.87;2.20;;;5.10;99.90;;;;;;5056934;28;20863;-54
2022/01/28 08:55:59;;;;;;;7.43;2.08;;;5.00;99.90;;;;;;5056720;28;20258;-53
2022/01/28 08:58:25;;;;;;;5.73;2.33;;;5.00;99.90;;;;;;5060061;28;20220;-55
2022/01/28 09:00:51;;;;;;;3.63;2.17;;;5.10;99.90;;;;;;5051734;28;20187;-56
2022/01/28 09:03:19;;;;;;;10.82;2.83;;;5.00;99.90;;;;;;5054923;28;20474;-51
2022/01/28 09:05:46;;;;;;;6.90;2.25;;;5.10;99.90;;;;;;5053775;28;20514;-55
2022/01/28 09:08:12;;;;;;;9.52;2.53;;;5.10;99.90;;;;;;5062140;28;20789;-56
2022/01/28 09:10:43;;;;;;;6.33;3.37;;;4.90;99.90;;;;;;5051973;28;20190;-53
2022/01/28 09:15:37;;;;;;;8.15;2.80;;;4.90;99.90;;;;;;5056632;28;20185;-53
2022/01/28 09:18:03;;;;;;;8.82;2.80;;;5.00;99.90;;;;;;5062120;28;20707;-52
2022/01/28 09:20:30;;;;;;;4.88;2.33;;;5.00;99.90;;;;;;5052498;28;20665;-53
2022/01/28 09:22:57;;;;;;;6.45;2.60;;;5.00;99.90;;;;;;5046315;28;20213;-55
2022/01/28 09:25:23;;;;;;;9.02;3.17;;;5.00;99.90;;;;;;5057202;28;20170;-55
2022/01/28 09:27:48;;;;;;;4.97;2.43;;;5.10;99.90;;;;;;5042326;28;20182;-53
2022/01/28 09:30:14;;;;;;;8.77;2.90;;;5.00;99.90;;;;;;5048588;28;20197;-54
2022/01/28 09:32:40;;;;;;;7.60;2.47;;;5.00;99.90;;;;;;5049480;28;20178;-56
2022/01/28 09:35:06;;;;;;;7.57;2.80;;;5.10;99.90;;;;;;5047434;28;20233;-53
2022/01/28 09:37:33;;;;;;;6.82;2.78;;;5.00;99.90;;;;;;5048079;28;20980;-54
2022/01/28 09:40:00;;;;;;;10.00;2.83;;;5.00;99.90;;;;;;5049825;28;20181;-56
2022/01/28 09:42:29;;;;;;;6.45;2.78;;;5.10;99.90;;;;;;5050144;28;20268;-54
2022/01/28 09:44:55;;;;;;;7.53;3.60;;;5.10;99.90;;;;;;5047631;28;20206;-54
2022/01/28 09:47:21;;;;;;;13.05;2.50;;;5.10;99.90;;;;;;5048022;28;20194;-57
2022/01/28 09:49:48;;;;;;;8.73;2.20;;;5.00;99.90;;;;;;5047380;28;20166;-55
2022/01/28 09:52:13;;;;;;;6.15;2.30;;;5.00;99.90;;;;;;5046245;28;20226;-55
2022/01/28 09:54:43;;;;;;;7.33;2.77;;;5.10;99.90;;;;;;5047951;28;20331;-55
2022/01/28 09:57:09;;;;;;;3.30;1.95;;;5.00;99.90;;;;;;5048064;28;20975;-57
2022/01/28 09:59:36;;;;;;;11.43;3.55;;;5.00;99.90;;;;;;5047608;28;20178;-55
2022/01/28 10:02:01;;;;;;;7.68;3.17;;;5.10;99.90;;;;;;5046998;28;20190;-52
2022/01/28 10:04:27;;;;;;;12.87;2.80;;;5.10;99.90;;;;;;5046577;28;20216;-58
2022/01/28 10:06:54;;;;;;;7.53;2.90;;;5.20;99.90;;;;;;5049257;28;20174;-57
2022/01/28 10:09:22;;;;;;;5.03;2.78;;;5.20;99.90;;;;;;5048986;28;20178;-53
2022/01/28 10:11:51;;;;;;;9.25;2.50;;;5.20;99.90;;;;;;5053661;28;20208;-56
2022/01/28 10:14:20;;;;;;;7.55;3.13;;;5.20;99.90;;;;;;5050811;28;20851;-58
2022/01/28 10:16:56;;;;;;;10.05;3.00;;;5.30;99.90;;;;;;5051701;28;20277;-52
2022/01/28 10:19:36;;;;;;;5.47;2.65;;;5.30;99.90;;;;;;5051828;28;20633;-55
2022/01/28 10:22:01;;;;;;;9.45;3.15;;;5.20;99.90;;;;;;5067897;28;20225;-57
2022/01/28 10:24:28;;;;;;;9.80;2.77;;;5.20;99.90;;;;;;5059907;28;20212;-55
2022/01/28 10:26:56;;;;;;;6.28;2.70;;;5.30;99.90;;;;;;5065020;28;20697;-54
2022/01/28 10:29:32;;;;;;;9.80;3.13;;;5.30;99.90;;;;;;5040123;28;20577;-55
2022/01/28 10:32:18;;;;;;;8.07;3.15;;;5.20;99.90;;;;;;5052581;28;20201;-51
2022/01/28 10:34:48;;;;;;;4.82;2.60;;;5.20;99.90;;;;;;5053926;28;20192;-55
2022/01/28 10:37:25;;;;;;;6.07;2.92;;;5.20;99.90;;;;;;5062669;28;20196;-55
2022/01/28 10:40:03;;;;;;;8.45;2.97;;;5.20;99.90;;;;;;5052139;28;20166;-52
2022/01/28 10:42:39;;;;;;;6.93;3.20;;;5.20;99.90;;;;;;5048869;28;20185;-55
2022/01/28 10:45:12;;;;;;;9.18;3.00;;;5.10;99.90;;;;;;5052059;28;20170;-57
2022/01/28 10:47:45;;;;;;;8.23;3.15;;;5.10;99.90;;;;;;5058246;28;20178;-55
2022/01/28 10:50:20;;;;;;;9.98;3.00;;;5.10;99.90;;;;;;5050450;28;20175;-56
2022/01/28 10:52:48;;;;;;;8.40;3.03;;;5.20;99.90;;;;;;5049622;28;20229;-54
2022/01/28 10:55:19;;;;;;;9.57;3.95;;;5.20;99.90;;;;;;5048608;28;20797;-56
2022/01/28 10:58:04;;;;;;;6.72;2.97;;;5.20;99.90;;;;;;5041429;28;20601;-54
2022/01/28 11:00:34;;;;;;;5.50;2.50;;;5.20;99.90;;;;;;5049807;28;20166;-57
2022/01/28 11:03:03;;;;;;;11.02;2.97;;;5.20;99.90;;;;;;5051979;28;20205;-54
2022/01/28 11:05:30;;;;;;;9.63;3.80;;;5.20;99.90;;;;;;5050655;28;20185;-53
2022/01/28 11:07:57;;;;;;;6.28;2.85;;;5.30;99.90;;;;;;5059824;28;20231;-56
2022/01/28 11:10:23;;;;;;;7.60;2.97;;;5.30;99.90;;;;;;5055292;28;20528;-49
2022/01/28 11:12:50;;;;;;;9.30;3.20;;;5.30;99.90;;;;;;5053081;28;20187;-54
2022/01/28 11:15:16;;;;;;;10.05;3.28;;;5.30;99.90;;;;;;5061282;28;20178;-55
2022/01/28 11:17:42;;;;;;;10.00;3.00;;;5.30;99.90;;;;;;5056684;28;20213;-54
2022/01/28 11:20:09;;;;;;;9.73;3.50;;;5.30;99.90;;;;;;5063561;28;20186;-56
2022/01/28 11:23:04;;;;;;;6.38;3.10;;;5.30;99.90;;;;;;5058131;28;20183;-54
2022/01/28 11:26:11;;;;;;;10.98;3.30;;;5.30;99.90;;;;;;5070690;28;20646;-55
2022/01/28 11:28:51;;;;;;;8.80;2.72;;;5.40;99.90;;;;;;5029934;28;20229;-54
2022/01/28 11:31:50;;;;;;;6.53;2.50;;;5.40;99.90;;;;;;5055226;28;20264;-57
2022/01/28 11:34:30;;;;;;;7.22;2.42;;;5.40;99.90;;;;;;5050147;28;20190;-54
2022/01/28 11:37:34;;;;;;;9.38;2.75;;;5.40;99.90;;;;;;5042251;28;20293;-55
2022/01/28 11:40:09;;;;;;;7.15;2.72;;;5.50;99.90;;;;;;5050160;28;20194;-54
2022/01/28 11:42:35;;;;;;;5.88;2.75;;;5.50;99.90;;;;;;5051407;28;20170;-57
2022/01/28 11:45:04;;;;;;;7.87;3.20;;;5.60;99.90;;;;;;5050617;28;20277;-57
2022/01/28 11:47:51;;;;;;;10.88;3.15;;;5.50;99.90;;;;;;5040568;28;20186;-58
2022/01/28 11:50:18;;;;;;;6.60;3.38;;;5.60;99.90;;;;;;5041762;28;20265;-59
2022/01/28 11:52:47;;;;;;;10.35;2.70;;;5.60;99.90;;;;;;5051398;28;20233;-58
2022/01/28 11:55:15;;;;;;;9.52;2.50;;;5.60;99.90;;;;;;5049993;28;20182;-58
2022/01/28 11:57:57;;;;;;;5.55;3.05;;;5.60;99.90;;;;;;5057947;28;20185;-56
2022/01/28 12:00:28;;;;;;;8.82;3.70;;;5.60;99.90;;;;;;5069373;28;20197;-59
2022/01/28 12:02:54;;;;;;;10.20;3.25;;;5.60;99.90;;;;;;5049830;28;20182;-56
2022/01/28 12:05:31;;;;;;;7.32;2.83;;;5.50;99.90;;;;;;5035801;28;20183;-57
2022/01/28 12:08:01;;;;;;;11.05;3.30;;;5.60;99.90;;;;;;5034150;28;20303;-55
2022/01/28 12:10:30;;;;;;;5.82;2.70;;;5.50;99.90;;;;;;5034283;28;20182;-53
2022/01/28 12:13:05;;;;;;;7.35;3.45;;;5.50;99.90;;;;;;5048865;28;20208;-55
2022/01/28 12:16:01;;;;;;;9.30;3.67;;;5.50;99.90;;;;;;5050704;28;20181;-55
2022/01/28 12:18:45;;;;;;;6.32;2.85;;;5.50;99.90;;;;;;5049547;28;20235;-55
2022/01/28 12:21:34;;;;;;;7.15;3.00;;;5.50;99.90;;;;;;5048178;28;20178;-53
2022/01/28 12:24:18;;;;;;;5.40;3.53;;;5.60;99.90;;;;;;5046993;28;20286;-51
2022/01/28 12:27:07;;;;;;;8.23;2.88;;;5.60;99.90;;;;;;5050146;28;20174;-53
2022/01/28 12:29:56;;;;;;;11.20;3.33;;;5.60;99.90;;;;;;5051974;28;20224;-56
2022/01/28 12:32:23;;;;;;;9.55;3.70;;;5.60;99.90;;;;;;5043506;28;20694;-56
2022/01/28 12:34:49;;;;;;;5.57;2.60;;;5.60;99.90;;;;;;5059857;28;20181;-56
2022/01/28 12:37:20;;;;;;;7.77;3.30;;;5.50;99.90;;;;;;5056712;28;20748;-56
2022/01/28 12:39:55;;;;;;;5.68;2.40;;;5.40;99.90;;;;;;5069472;28;20428;-54
2022/01/28 12:42:23;;;;;;;5.05;2.70;;;5.40;99.90;;;;;;5069568;28;20638;-54
2022/01/28 12:44:53;;;;;;;7.82;2.78;;;5.50;99.90;;;;;;5069628;28;20485;-55
2022/01/28 12:47:20;;;;;;;9.20;3.50;;;5.50;99.90;;;;;;5068390;28;20292;-54
2022/01/28 12:49:46;;;;;;;7.00;3.05;;;5.50;99.90;;;;;;5068322;28;20186;-56
2022/01/28 12:52:12;;;;;;;10.68;3.63;;;5.50;99.90;;;;;;5058998;28;20229;-53
2022/01/28 12:54:40;;;;;;;6.25;2.90;;;5.50;99.90;;;;;;5066285;28;20185;-54
2022/01/28 12:57:09;;;;;;;6.82;3.17;;;5.60;99.90;;;;;;5069348;28;20189;-53
2022/01/28 12:59:35;;;;;;;8.85;3.10;;;5.60;99.90;;;;;;5069453;28;20201;-58
2022/01/28 13:02:01;;;;;;;7.50;2.80;;;5.70;99.90;;;;;;5069445;28;20196;-56
2022/01/28 13:04:49;;;;;;;9.10;3.13;;;5.80;99.90;;;;;;5068035;28;20237;-55
2022/01/28 13:09:57;;;;;;;6.45;2.90;;;5.70;99.90;;;;;;5069223;28;20181;-53
2022/01/28 13:12:28;;;;;;;9.05;3.67;;;5.90;99.90;;;;;;5069297;28;20196;-56
2022/01/28 13:14:54;;;;;;;7.63;2.83;;;5.90;99.90;;;;;;5060233;28;20229;-58
2022/01/28 13:17:22;;;;;;;9.77;3.60;;;6.00;99.90;;;;;;5065848;28;20201;-57
2022/01/28 13:20:01;;;;;;;7.18;3.50;;;6.00;99.90;;;;;;5069001;28;20510;-54
2022/01/28 13:22:29;;;;;;;7.55;2.72;;;6.00;99.90;;;;;;5067503;28;20327;-55
2022/01/28 13:24:56;;;;;;;7.45;3.20;;;6.00;99.90;;;;;;5068568;28;20204;-56
2022/01/28 13:27:37;;;;;;;9.85;3.67;;;6.00;99.90;;;;;;5068652;28;20514;-61
2022/01/28 13:30:14;;;;;;;10.27;4.15;;;6.10;99.90;;;;;;5068824;28;20180;-59
2022/01/28 13:32:44;;;;;;;10.27;2.90;;;6.20;99.90;;;;;;5068586;28;20177;-54
2022/01/28 13:35:16;;;;;;;7.80;3.05;;;6.30;99.90;;;;;;5053889;28;20212;-55
2022/01/28 13:37:57;;;;;;;10.75;3.20;;;6.50;99.90;;;;;;5068859;28;21064;-55
2022/01/28 13:40:31;;;;;;;8.02;3.53;;;6.50;99.90;;;;;;5068521;28;20173;-56
2022/01/28 13:43:09;;;;;;;5.05;3.72;;;6.70;99.90;;;;;;5068892;28;20212;-54
2022/01/28 13:45:37;;;;;;;6.27;3.10;;;7.00;99.90;;;;;;5050009;28;20228;-56
2022/01/28 13:48:07;;;;;;;7.00;4.40;;;7.30;99.20;;;;;;5042342;28;20825;-55
2022/01/28 13:50:39;;;;;;;9.30;3.17;;;7.50;98.20;;;;;;5063948;28;20718;-55
2022/01/28 13:55:59;;;;;;;11.17;3.70;;;7.30;97.50;;;;;;5046498;28;20461;-53
2022/01/28 13:58:25;;;;;;;8.00;3.88;;;6.90;98.10;;;;;;5068241;28;20419;-56
2022/01/28 14:00:52;;;;;;;9.23;3.50;;;6.80;98.70;;;;;;5068194;28;20195;-52
2022/01/28 14:03:19;;;;;;;12.52;4.18;;;6.60;99.40;;;;;;5062399;28;20490;-56
2022/01/28 14:05:53;;;;;;;8.63;3.83;;;6.60;99.90;;;;;;5062735;28;20178;-53
2022/01/28 14:08:42;;;;;;;6.03;3.53;;;6.40;99.90;;;;;;5064316;28;20448;-50
2022/01/28 14:11:26;;;;;;;4.72;3.00;;;6.40;99.90;;;;;;5067157;28;20636;-53
2022/01/28 14:14:25;;;;;;;6.85;3.33;;;6.20;99.90;;;;;;5049175;28;20700;-55
2022/01/28 14:16:59;;;;;;;7.18;3.28;;;6.10;99.90;;;;;;5066496;28;20193;-53
2022/01/28 14:19:26;;;;;;;8.25;4.00;;;6.00;99.90;;;;;;5068561;28;20185;-54
2022/01/28 14:21:52;;;;;;;6.85;2.95;;;6.00;99.90;;;;;;5048346;28;20194;-52
2022/01/28 14:24:20;;;;;;;6.90;3.17;;;6.00;99.90;;;;;;5054162;28;20978;-55
2022/01/28 14:26:57;;;;;;;6.20;3.33;;;5.90;99.90;;;;;;5065572;28;20193;-54
2022/01/28 14:29:36;;;;;;;7.18;3.75;;;5.90;99.90;;;;;;5057321;28;20746;-55
2022/01/28 14:32:03;;;;;;;15.82;4.05;;;5.90;99.90;;;;;;5067317;28;20177;-51